Rochester, NY (14609)

1:57 PM EST on February 08, 2016 (GMT -0500)
Laurelton Area | | Change Station
CLOSE
Current Station
Personal Weather Station
Location: Rochester, NY
Elevation: 469 ft
Nearby Weather Stations

Elev 469 ft 43.17 °N, 77.55 °W | Updated 36 seconds ago

Overcast
Overcast
40.7 °F
Feels Like 37 °F
N
5.0
Wind Variable Wind from SE
Gusts 10.0 mph

Today
High -- | Low -- °F
--% Chance of Precip.
Yesterday
High -- | Low -- °F
Precip. -- in
Pressure 29.66 in
Visibility 10.0 miles
Clouds Overcast 7500 ft
Windchill 37 °F
Dew Point 27 °F
Humidity 57%
Rainfall 0.00 in
Snow Depth Not available.
7:18 AM 5:31 PM
New Moon, 0% visible
METAR KROC 081854Z 12012KT 10SM OVC075 06/M04 A2964 RMK AO2 SLP044 T00561044
Pressure 29.66 in
Visibility 10.0 miles
Clouds Overcast 7500 ft
Windchill 37 °F
Dew Point 27 °F
Humidity 57%
Rainfall 0.00 in
Snow Depth Not available.
7:18 AM 5:31 PM
New Moon, 0% visible
METAR KROC 081854Z 12012KT 10SM OVC075 06/M04 A2964 RMK AO2 SLP044 T00561044

10-Day Weather Forecast

Almanac

Astronomy

Feb. 08, 2016 Rise Set
Actual Time
Civil Twilight
Nautical Twilight
Astronomical Twilight
Moon
Length of Visible Light
Length of Day
Tomorrow will be .
, % of the Moon is Illuminated

Today's Extremes

State Highs State Lows

Community

WunderPhotos

Upload Photos

1,891,481 photos uploaded!

WunderBlog® & News

Nearby

Air Quality

  Air Quality AQ Index Pollutant
Not available.

Snow Depth

Station Depth Elevation

Earthquake Activity

City Distance Mag. Time & Date
Minimum magnitude displayed is 2.5.

Coastal Water Temperatures

Place Temperature

Stations

Nearby Weather Stations

Station Location Temp. Windchill Dew Point Humidity Wind Precip. Elev Updated Type
                   

Watches & Warnings

There are currently no watches in effect.